createdAt,value
2018-03-22T00:00:26.680Z,12.20
2018-03-22T00:02:55.475Z,11.23
2018-03-22T00:05:24.156Z,11.50
2018-03-22T00:07:52.902Z,12.18
2018-03-22T00:10:21.510Z,11.52
2018-03-22T00:12:50.174Z,11.57
2018-03-22T00:15:18.756Z,11.15
2018-03-22T00:17:48.272Z,10.18
2018-03-22T00:20:17.910Z,9.82
2018-03-22T00:22:48.257Z,11.02
2018-03-22T00:25:17.863Z,11.82
2018-03-22T00:27:46.529Z,11.00
2018-03-22T00:30:15.171Z,10.77
2018-03-22T00:32:43.771Z,10.95
2018-03-22T00:35:12.551Z,11.55
2018-03-22T00:37:41.371Z,10.55
2018-03-22T00:40:10.131Z,10.77
2018-03-22T00:42:39.549Z,10.40
2018-03-22T00:45:09.074Z,11.20
2018-03-22T00:47:38.452Z,12.57
2018-03-22T00:50:07.100Z,11.80
2018-03-22T00:52:37.237Z,11.88
2018-03-22T00:55:06.349Z,11.07
2018-03-22T00:57:34.968Z,11.15
2018-03-22T01:00:04.585Z,10.95
2018-03-22T01:02:34.029Z,11.35
2018-03-22T01:05:02.755Z,10.90
2018-03-22T01:07:31.476Z,10.80
2018-03-22T01:10:00.144Z,9.88
2018-03-22T01:12:29.524Z,10.60
2018-03-22T01:14:58.099Z,11.27
2018-03-22T01:17:26.812Z,10.90
2018-03-22T01:19:55.521Z,11.65
2018-03-22T01:22:24.592Z,11.05
2018-03-22T01:24:54.542Z,10.55
2018-03-22T01:27:24.014Z,10.48
2018-03-22T01:29:52.602Z,11.43
2018-03-22T01:32:21.194Z,9.85
2018-03-22T01:34:49.827Z,10.68
2018-03-22T01:37:19.202Z,10.88
2018-03-22T01:39:48.519Z,9.90
2018-03-22T01:42:17.902Z,10.52
2018-03-22T01:44:46.449Z,10.10
2018-03-22T01:47:15.748Z,10.10
2018-03-22T01:49:44.289Z,10.38
2018-03-22T01:52:12.941Z,10.35
2018-03-22T01:54:42.138Z,10.80
2018-03-22T01:57:11.461Z,10.05
2018-03-22T01:59:40.218Z,10.30
2018-03-22T02:02:08.964Z,10.02
2018-03-22T02:04:37.599Z,9.95
2018-03-22T02:07:07.089Z,9.65
2018-03-22T02:09:35.794Z,9.82
2018-03-22T02:12:04.427Z,10.43
2018-03-22T02:14:33.091Z,10.75
2018-03-22T02:17:02.533Z,9.48
2018-03-22T02:19:31.224Z,8.30
2018-03-22T02:22:00.719Z,9.60
2018-03-22T02:24:29.247Z,9.38
2018-03-22T02:26:59.892Z,10.13
2018-03-22T02:29:29.676Z,8.57
2018-03-22T02:31:58.372Z,9.82
2018-03-22T02:34:26.980Z,9.65
2018-03-22T02:36:55.737Z,10.43
2018-03-22T02:39:24.320Z,9.63
2018-03-22T02:41:52.919Z,10.07
2018-03-22T02:44:22.472Z,10.15
2018-03-22T02:46:51.138Z,9.75
2018-03-22T02:49:19.716Z,9.93
2018-03-22T02:51:48.347Z,9.55
2018-03-22T02:54:17.002Z,9.95
2018-03-22T02:56:45.763Z,9.98
2018-03-22T02:59:15.107Z,9.90
2018-03-22T03:01:43.999Z,9.13
2018-03-22T03:04:12.925Z,10.02
2018-03-22T03:06:41.637Z,10.70
2018-03-22T03:09:10.665Z,9.32
2018-03-22T03:11:40.119Z,9.38
2018-03-22T03:14:08.769Z,9.90
2018-03-22T03:16:37.390Z,9.35
2018-03-22T03:19:05.879Z,10.73
2018-03-22T03:21:34.431Z,9.70
2018-03-22T03:24:04.050Z,9.88
2018-03-22T03:26:33.530Z,9.95
2018-03-22T03:29:02.429Z,9.18
2018-03-22T03:31:31.698Z,9.35
2018-03-22T03:34:00.556Z,9.70
2018-03-22T03:36:29.182Z,10.48
2018-03-22T03:38:57.837Z,9.70
2018-03-22T03:41:27.187Z,9.63
2018-03-22T03:43:56.603Z,10.55
2018-03-22T03:46:25.162Z,10.70
2018-03-22T03:48:53.839Z,9.90
2018-03-22T03:51:22.576Z,9.73
2018-03-22T03:53:51.498Z,9.10
2018-03-22T03:56:20.229Z,9.23
2018-03-22T03:58:49.696Z,10.27
2018-03-22T04:01:18.608Z,10.50
2018-03-22T04:03:48.734Z,8.63
2018-03-22T04:06:17.422Z,9.40
2018-03-22T04:08:46.026Z,9.65
2018-03-22T04:11:14.699Z,10.32
2018-03-22T04:13:43.257Z,9.13
2018-03-22T04:16:11.948Z,9.20
2018-03-22T04:18:40.620Z,10.02
2018-03-22T04:21:09.258Z,10.13
2018-03-22T04:23:38.533Z,9.25
2018-03-22T04:26:07.215Z,9.40
2018-03-22T04:28:35.804Z,10.40
2018-03-22T04:31:04.404Z,10.05
2018-03-22T04:33:33.244Z,9.73
2018-03-22T04:36:03.385Z,9.77
2018-03-22T04:38:32.528Z,10.30
2018-03-22T04:41:01.244Z,9.38
2018-03-22T04:43:29.895Z,10.27
2018-03-22T04:45:58.508Z,9.65
2018-03-22T04:48:27.260Z,9.55
2018-03-22T04:50:55.873Z,10.40
2018-03-22T04:53:24.509Z,10.45
2018-03-22T04:55:53.216Z,9.10
2018-03-22T04:58:21.890Z,8.85
2018-03-22T05:00:51.274Z,9.38
2018-03-22T05:03:19.897Z,10.38
2018-03-22T05:05:48.610Z,9.82
2018-03-22T05:08:17.499Z,9.38
2018-03-22T05:10:46.734Z,9.35
2018-03-22T05:13:15.518Z,9.32
2018-03-22T05:15:44.165Z,8.48
2018-03-22T05:18:12.758Z,8.93
2018-03-22T05:20:41.354Z,8.70
2018-03-22T05:23:10.282Z,9.23
2018-03-22T05:25:39.062Z,9.10
2018-03-22T05:28:07.646Z,8.90
2018-03-22T05:30:36.324Z,9.80
2018-03-22T05:33:05.072Z,10.05
2018-03-22T05:35:33.743Z,8.70
2018-03-22T05:38:03.100Z,9.48
2018-03-22T05:40:32.013Z,9.07
2018-03-22T05:43:01.246Z,10.18
2018-03-22T05:45:30.184Z,9.30
2018-03-22T05:47:58.861Z,9.20
2018-03-22T05:50:28.124Z,8.77
2018-03-22T05:52:57.668Z,9.73
2018-03-22T05:55:26.244Z,9.10
2018-03-22T05:57:54.794Z,8.45
2018-03-22T06:00:25.140Z,8.65
2018-03-22T06:02:53.816Z,8.50
2018-03-22T06:05:23.234Z,7.50
2018-03-22T06:07:51.912Z,8.05
2018-03-22T06:10:20.502Z,7.72
2018-03-22T06:12:49.153Z,8.15
2018-03-22T06:15:18.484Z,7.32
2018-03-22T06:17:47.322Z,7.47
2018-03-22T06:20:15.907Z,7.32
2018-03-22T06:22:45.411Z,9.55
2018-03-22T06:25:14.145Z,7.80
2018-03-22T06:27:43.557Z,10.55
2018-03-22T06:30:12.106Z,8.48
2018-03-22T06:32:40.704Z,6.60
2018-03-22T06:35:09.397Z,6.72
2018-03-22T06:37:38.000Z,6.43
2018-03-22T06:40:06.704Z,6.85
2018-03-22T06:42:36.154Z,7.60
2018-03-22T06:45:05.012Z,6.75
2018-03-22T06:47:34.389Z,6.47
2018-03-22T06:50:03.520Z,7.47
2018-03-22T06:52:32.183Z,6.22
2018-03-22T06:55:00.868Z,7.22
2018-03-22T06:57:29.386Z,6.97
2018-03-22T06:59:58.834Z,6.47
2018-03-22T07:02:27.500Z,6.40
2018-03-22T07:04:56.142Z,7.37
2018-03-22T07:07:24.814Z,6.47
2018-03-22T07:09:53.519Z,7.45
2018-03-22T07:12:22.196Z,5.70
2018-03-22T07:14:51.318Z,6.22
2018-03-22T07:17:21.158Z,6.40
2018-03-22T07:19:49.916Z,6.22
2018-03-22T07:22:18.867Z,5.72
2018-03-22T07:24:47.924Z,5.43
2018-03-22T07:27:17.426Z,5.75
2018-03-22T07:29:45.971Z,5.90
2018-03-22T07:32:15.936Z,8.10
2018-03-22T07:34:44.708Z,6.37
2018-03-22T07:37:14.561Z,6.10
2018-03-22T07:39:43.238Z,5.62
2018-03-22T07:42:12.282Z,5.72
2018-03-22T07:44:41.102Z,6.30
2018-03-22T07:47:10.299Z,6.28
2018-03-22T07:49:41.711Z,5.03
2018-03-22T07:52:12.253Z,5.22
2018-03-22T07:54:40.899Z,5.70
2018-03-22T07:57:09.627Z,6.18
2018-03-22T07:59:38.248Z,5.90
2018-03-22T08:02:06.934Z,5.07
2018-03-22T08:04:36.406Z,6.03
2018-03-22T08:07:05.111Z,5.67
2018-03-22T08:09:33.831Z,4.40
2018-03-22T08:12:02.467Z,5.10
2018-03-22T08:14:31.126Z,5.43
2018-03-22T08:16:59.797Z,5.40
2018-03-22T08:19:29.743Z,5.00
2018-03-22T08:21:58.775Z,4.63
2018-03-22T08:24:28.316Z,5.53
2018-03-22T08:26:58.775Z,6.10
2018-03-22T08:29:27.582Z,5.40
2018-03-22T08:31:56.331Z,4.83
2018-03-22T08:34:25.670Z,5.77
2018-03-22T08:36:54.960Z,6.70
2018-03-22T08:39:23.582Z,5.43
2018-03-22T08:41:52.367Z,5.30
2018-03-22T08:44:21.057Z,5.97
2018-03-22T08:46:49.616Z,6.07
2018-03-22T08:49:18.592Z,5.53
2018-03-22T08:51:47.856Z,5.40
2018-03-22T08:54:17.283Z,5.10
2018-03-22T08:56:45.990Z,5.23
2018-03-22T08:59:14.576Z,6.10
2018-03-22T09:01:44.054Z,5.00
2018-03-22T09:04:12.691Z,5.07
2018-03-22T09:06:42.122Z,5.57
2018-03-22T09:09:11.518Z,5.90
2018-03-22T09:11:40.050Z,6.27
2018-03-22T09:14:09.436Z,5.20
2018-03-22T09:16:38.962Z,5.67
2018-03-22T09:19:07.620Z,5.00
2018-03-22T09:21:36.627Z,5.77
2018-03-22T09:24:06.872Z,5.67
2018-03-22T09:29:36.373Z,5.70
2018-03-22T09:32:05.045Z,5.10
2018-03-22T09:34:33.971Z,4.93
2018-03-22T09:37:02.708Z,6.00
2018-03-22T09:39:31.301Z,6.13
2018-03-22T09:41:59.892Z,6.10
2018-03-22T09:44:28.441Z,5.13
2018-03-22T09:46:57.922Z,5.30
2018-03-22T09:49:26.505Z,5.60
2018-03-22T09:51:55.220Z,5.87
2018-03-22T09:54:23.812Z,5.87
2018-03-22T09:56:52.724Z,6.30
2018-03-22T09:59:22.060Z,4.60
2018-03-22T10:01:52.223Z,5.87
2018-03-22T10:04:21.004Z,4.63
2018-03-22T10:06:49.719Z,6.17
2018-03-22T10:09:18.411Z,4.70
2018-03-22T10:11:46.978Z,4.90
2018-03-22T10:14:16.611Z,5.23
2018-03-22T10:16:46.178Z,6.00
2018-03-22T10:19:14.957Z,5.90
2018-03-22T10:21:43.681Z,5.03
2018-03-22T10:24:12.441Z,4.53
2018-03-22T10:26:41.937Z,6.53
2018-03-22T10:29:10.776Z,5.10
2018-03-22T10:31:40.183Z,5.50
2018-03-22T10:34:09.630Z,4.40
2018-03-22T10:36:40.599Z,4.60
2018-03-22T10:39:09.385Z,5.80
2018-03-22T10:41:38.321Z,7.80
2018-03-22T10:44:07.751Z,13.33
2018-03-22T10:46:37.252Z,5.53
2018-03-22T10:49:06.192Z,10.37
2018-03-22T10:51:36.010Z,8.00
2018-03-22T10:54:06.334Z,5.03
2018-03-22T10:56:36.038Z,10.43
2018-03-22T10:59:07.512Z,6.00
2018-03-22T11:01:41.639Z,5.27
2018-03-22T11:04:10.501Z,5.60
2018-03-22T11:06:39.877Z,4.43
2018-03-22T11:09:08.859Z,4.77
2018-03-22T11:11:38.734Z,5.47
2018-03-22T11:14:07.512Z,4.17
2018-03-22T11:16:36.268Z,4.80
2018-03-22T11:19:05.009Z,4.70
2018-03-22T11:21:35.392Z,3.40
2018-03-22T11:24:05.031Z,4.20
2018-03-22T11:26:33.649Z,4.90
2018-03-22T11:29:02.925Z,4.07
2018-03-22T11:31:31.518Z,5.53
2018-03-22T11:34:01.479Z,4.83
2018-03-22T11:36:30.286Z,5.00
2018-03-22T11:38:59.266Z,4.57
2018-03-22T11:41:28.746Z,4.40
2018-03-22T11:43:57.353Z,4.10
2018-03-22T11:46:25.947Z,4.63
2018-03-22T11:48:55.232Z,4.33
2018-03-22T11:51:24.097Z,4.57
2018-03-22T11:53:53.466Z,5.63
2018-03-22T11:56:23.246Z,4.53
2018-03-22T11:58:52.020Z,5.47
2018-03-22T12:01:20.777Z,5.30
2018-03-22T12:03:50.153Z,4.27
2018-03-22T12:06:18.786Z,4.47
2018-03-22T12:08:47.428Z,4.70
2018-03-22T12:11:16.992Z,5.60
2018-03-22T12:13:45.667Z,3.93
2018-03-22T12:16:15.204Z,4.87
2018-03-22T12:18:48.786Z,3.53
2018-03-22T12:21:18.172Z,4.33
2018-03-22T12:23:47.131Z,4.27
2018-03-22T12:26:15.810Z,4.07
2018-03-22T12:28:44.458Z,4.90
2018-03-22T12:31:13.824Z,4.20
2018-03-22T12:33:42.584Z,4.50
2018-03-22T12:36:12.109Z,3.83
2018-03-22T12:38:41.719Z,3.73
2018-03-22T12:41:10.292Z,6.53
2018-03-22T12:43:38.905Z,4.70
2018-03-22T12:46:07.513Z,5.90
2018-03-22T12:48:36.104Z,3.80
2018-03-22T12:51:05.743Z,5.47
2018-03-22T12:53:34.845Z,5.47
2018-03-22T12:56:03.750Z,5.07
2018-03-22T12:58:32.434Z,3.80
2018-03-22T13:01:01.770Z,3.73
2018-03-22T13:03:30.467Z,3.83
2018-03-22T13:05:59.834Z,3.70
2018-03-22T13:08:28.483Z,2.90
2018-03-22T13:10:58.062Z,3.53
2018-03-22T13:13:27.477Z,3.17
2018-03-22T13:15:56.238Z,3.70
2018-03-22T13:18:26.392Z,3.67
2018-03-22T13:20:56.054Z,4.10
2018-03-22T13:23:26.286Z,3.83
2018-03-22T13:25:55.428Z,3.50
2018-03-22T13:28:24.182Z,3.77
2018-03-22T13:30:53.912Z,3.93
2018-03-22T13:33:23.795Z,4.10
2018-03-22T13:35:52.803Z,3.73
2018-03-22T13:38:22.383Z,3.93
2018-03-22T13:40:52.810Z,3.63
2018-03-22T13:43:21.668Z,3.43
2018-03-22T13:45:50.584Z,3.30
2018-03-22T13:48:19.435Z,3.43
2018-03-22T13:50:49.039Z,3.40
2018-03-22T13:53:20.159Z,5.17
2018-03-22T13:55:49.764Z,5.37
2018-03-22T13:58:19.444Z,3.33
2018-03-22T14:00:48.273Z,5.23
2018-03-22T14:03:17.366Z,4.50
2018-03-22T14:05:46.150Z,6.60
2018-03-22T14:08:16.467Z,11.43
2018-03-22T14:10:45.188Z,8.00
2018-03-22T14:13:13.938Z,3.87
2018-03-22T14:15:43.220Z,3.80
2018-03-22T14:18:12.780Z,3.83
2018-03-22T14:20:44.056Z,3.97
2018-03-22T14:23:12.743Z,3.00
2018-03-22T14:25:41.548Z,3.33
2018-03-22T14:28:10.247Z,3.43
2018-03-22T14:30:39.751Z,3.07
2018-03-22T14:33:09.111Z,3.47
2018-03-22T14:35:37.948Z,3.47
2018-03-22T14:38:06.724Z,2.90
2018-03-22T14:40:35.585Z,5.23
2018-03-22T14:43:05.217Z,4.90
2018-03-22T14:45:34.718Z,4.33
2018-03-22T14:48:03.830Z,4.33
2018-03-22T14:50:33.254Z,4.70
2018-03-22T14:53:02.255Z,4.53
2018-03-22T14:55:30.962Z,3.83
2018-03-22T14:57:59.737Z,3.30
2018-03-22T15:00:29.309Z,3.77
2018-03-22T15:02:58.091Z,4.27
2018-03-22T15:05:27.711Z,4.13
2018-03-22T15:07:57.231Z,4.30
2018-03-22T15:10:26.968Z,4.03
2018-03-22T15:12:55.824Z,4.57
2018-03-22T15:15:25.043Z,4.93
2018-03-22T15:17:56.669Z,4.63
2018-03-22T15:20:26.572Z,3.57
2018-03-22T15:22:56.373Z,2.87
2018-03-22T15:25:26.040Z,2.87
2018-03-22T15:27:55.192Z,3.73
2018-03-22T15:30:24.015Z,3.40
2018-03-22T15:32:52.790Z,3.30
2018-03-22T15:35:22.285Z,3.70
2018-03-22T15:37:50.838Z,2.87
2018-03-22T15:40:20.390Z,3.30
2018-03-22T15:42:49.105Z,3.77
2018-03-22T15:45:17.764Z,3.10
2018-03-22T15:47:47.697Z,4.87
2018-03-22T15:50:17.496Z,6.43
2018-03-22T15:52:46.144Z,4.30
2018-03-22T15:55:15.561Z,4.90
2018-03-22T15:57:45.091Z,3.57
2018-03-22T16:00:14.557Z,3.30
2018-03-22T16:02:43.780Z,2.87
2018-03-22T16:05:12.477Z,2.53
2018-03-22T16:07:41.293Z,3.60
2018-03-22T16:10:10.012Z,3.17
2018-03-22T16:12:39.178Z,4.57
2018-03-22T16:15:09.273Z,3.47
2018-03-22T16:17:39.036Z,4.00
2018-03-22T16:20:09.143Z,3.47
2018-03-22T16:22:38.006Z,4.27
2018-03-22T16:25:06.848Z,4.20
2018-03-22T16:27:35.635Z,7.37
2018-03-22T16:30:04.780Z,5.53
2018-03-22T16:32:33.568Z,5.27
2018-03-22T16:35:02.329Z,3.63
2018-03-22T16:37:31.101Z,4.10
2018-03-22T16:39:59.767Z,4.47
2018-03-22T16:42:29.282Z,6.20
2018-03-22T16:44:58.752Z,4.77
2018-03-22T16:47:27.909Z,8.63
2018-03-22T16:49:57.842Z,6.40
2018-03-22T16:52:26.907Z,4.07
2018-03-22T16:54:55.813Z,4.10
2018-03-22T16:57:24.546Z,3.92
2018-03-22T16:59:53.454Z,4.57
2018-03-22T17:02:22.552Z,4.60
2018-03-22T17:04:51.218Z,4.70
2018-03-22T17:07:20.112Z,4.40
2018-03-22T17:09:48.968Z,5.00
2018-03-22T17:12:18.820Z,4.80
2018-03-22T17:14:48.000Z,5.32
2018-03-22T17:17:19.304Z,7.68
2018-03-22T17:19:49.461Z,4.90
2018-03-22T17:22:19.358Z,4.93
2018-03-22T17:24:53.062Z,5.32
2018-03-22T17:27:22.859Z,9.90
2018-03-22T17:29:51.593Z,6.95
2018-03-22T17:32:21.157Z,6.00
2018-03-22T17:34:50.024Z,6.93
2018-03-22T17:37:18.756Z,6.55
2018-03-22T17:39:48.385Z,6.10
2018-03-22T17:42:19.780Z,7.90
2018-03-22T17:44:49.392Z,7.97
2018-03-22T17:47:18.366Z,5.32
2018-03-22T17:49:47.304Z,5.03
2018-03-22T17:52:17.033Z,4.47
2018-03-22T17:54:46.692Z,5.25
2018-03-22T17:57:15.654Z,6.55
2018-03-22T17:59:44.681Z,8.32
2018-03-22T18:02:14.419Z,6.25
2018-03-22T18:04:43.372Z,8.73
2018-03-22T18:07:12.337Z,7.07
2018-03-22T18:09:42.472Z,6.70
2018-03-22T18:12:12.181Z,5.65
2018-03-22T18:14:41.577Z,13.98
2018-03-22T18:17:10.733Z,13.18
2018-03-22T18:19:39.700Z,14.45
2018-03-22T18:22:08.764Z,6.90
2018-03-22T18:24:38.018Z,5.57
2018-03-22T18:27:07.072Z,5.43
2018-03-22T18:29:36.102Z,6.07
2018-03-22T18:32:04.943Z,4.05
2018-03-22T18:34:34.084Z,4.95
2018-03-22T18:37:03.053Z,5.07
2018-03-22T18:39:32.119Z,6.35
2018-03-22T18:42:02.751Z,17.58
2018-03-22T18:44:32.804Z,17.92
2018-03-22T18:47:04.024Z,20.42
2018-03-22T18:49:33.995Z,10.52
2018-03-22T18:52:03.694Z,13.50
2018-03-22T18:54:33.404Z,5.55
2018-03-22T18:57:02.412Z,24.02
2018-03-22T18:59:31.529Z,6.82
2018-03-22T19:02:00.612Z,5.65
2018-03-22T19:04:29.894Z,14.95
2018-03-22T19:07:00.082Z,15.63
2018-03-22T19:09:30.135Z,18.33
2018-03-22T19:11:59.326Z,7.22
2018-03-22T19:14:29.633Z,15.70
2018-03-22T19:16:58.957Z,10.13
2018-03-22T19:19:29.041Z,16.55
2018-03-22T19:21:59.162Z,5.37
2018-03-22T19:24:28.184Z,10.27
2018-03-22T19:26:57.280Z,10.88
2018-03-22T19:29:27.781Z,7.25
2018-03-22T19:31:58.491Z,7.45
2018-03-22T19:34:28.241Z,6.10
2018-03-22T19:36:57.481Z,5.12
2018-03-22T19:39:27.944Z,4.00
2018-03-22T19:41:57.068Z,4.60
2018-03-22T19:44:26.565Z,4.93
2018-03-22T19:46:55.780Z,4.32
2018-03-22T19:49:25.308Z,4.95
2018-03-22T19:51:55.195Z,4.62
2018-03-22T19:54:25.236Z,5.50
2018-03-22T19:56:55.785Z,5.80
2018-03-22T19:59:25.625Z,6.18
2018-03-22T20:01:57.580Z,4.87
2018-03-22T20:04:26.501Z,5.03
2018-03-22T20:06:56.152Z,6.00
2018-03-22T20:09:25.108Z,4.80
2018-03-22T20:11:55.225Z,4.10
2018-03-22T20:14:24.348Z,4.87
2018-03-22T20:16:53.464Z,3.87
2018-03-22T20:19:22.636Z,4.03
2018-03-22T20:21:52.422Z,4.40
2018-03-22T20:24:22.152Z,4.00
2018-03-22T20:26:52.164Z,4.80
2018-03-22T20:29:22.240Z,4.55
2018-03-22T20:31:51.744Z,6.28
2018-03-22T20:34:21.327Z,4.93
2018-03-22T20:36:51.223Z,5.28
2018-03-22T20:39:21.214Z,9.35
2018-03-22T20:41:50.740Z,10.73
2018-03-22T20:44:20.390Z,10.05
2018-03-22T20:46:49.449Z,10.00
2018-03-22T20:49:18.700Z,11.18
2018-03-22T20:51:50.083Z,16.75
2018-03-22T20:54:19.344Z,8.93
2018-03-22T20:56:48.210Z,6.93
2018-03-22T20:59:17.594Z,6.30
2018-03-22T21:01:46.684Z,5.95
2018-03-22T21:04:16.233Z,7.05
2018-03-22T21:06:46.586Z,7.10
2018-03-22T21:09:15.793Z,7.72
2018-03-22T21:11:44.672Z,11.57
2018-03-22T21:14:13.449Z,16.15
2018-03-22T21:16:42.411Z,17.40
2018-03-22T21:19:12.112Z,16.55
2018-03-22T21:21:41.245Z,11.15
2018-03-22T21:24:10.565Z,11.52
2018-03-22T21:26:39.692Z,8.85
2018-03-22T21:29:08.535Z,8.23
2018-03-22T21:31:38.125Z,6.85
2018-03-22T21:34:07.061Z,14.02
2018-03-22T21:36:35.975Z,11.90
2018-03-22T21:39:05.054Z,11.23
2018-03-22T21:41:34.438Z,11.35
2018-03-22T21:44:16.831Z,11.38
2018-03-22T21:46:45.450Z,11.52
2018-03-22T21:49:14.985Z,15.30
2018-03-22T21:54:54.576Z,13.75
2018-03-22T21:57:23.842Z,16.55
2018-03-22T21:59:53.431Z,23.87
2018-03-22T22:02:23.879Z,19.80
2018-03-22T22:04:53.213Z,19.75
2018-03-22T22:07:23.070Z,17.23
2018-03-22T22:09:52.142Z,14.70
2018-03-22T22:12:20.893Z,11.25
2018-03-22T22:14:49.601Z,11.55
2018-03-22T22:17:19.422Z,7.72
2018-03-22T22:19:48.263Z,7.55
2018-03-22T22:22:16.886Z,7.50
2018-03-22T22:24:46.187Z,8.07
2018-03-22T22:27:16.233Z,8.68
2018-03-22T22:29:45.730Z,7.57
2018-03-22T22:32:14.590Z,8.95
2018-03-22T22:34:43.836Z,9.75
2018-03-22T22:37:12.892Z,10.57
2018-03-22T22:39:42.511Z,11.32
2018-03-22T22:42:12.132Z,10.15
2018-03-22T22:44:41.006Z,10.18
2018-03-22T22:47:09.712Z,9.70
2018-03-22T22:49:38.407Z,11.23
2018-03-22T22:52:07.107Z,14.63
2018-03-22T22:54:35.775Z,11.68
2018-03-22T22:57:04.547Z,11.35
2018-03-22T22:59:33.118Z,10.30
2018-03-22T23:02:02.659Z,10.02
2018-03-22T23:04:32.384Z,9.27
2018-03-22T23:07:01.668Z,9.73
2018-03-22T23:09:30.610Z,7.60
2018-03-22T23:11:59.289Z,7.80
2018-03-22T23:14:28.003Z,7.68
2018-03-22T23:16:57.673Z,8.25
2018-03-22T23:19:26.383Z,8.00
2018-03-22T23:21:55.278Z,8.50
2018-03-22T23:24:23.996Z,6.97
2018-03-22T23:26:52.609Z,9.23
2018-03-22T23:29:22.049Z,7.32
2018-03-22T23:31:50.831Z,8.68
2018-03-22T23:34:19.791Z,7.53
2018-03-22T23:36:49.020Z,7.87
2018-03-22T23:39:19.170Z,6.93
2018-03-22T23:41:47.891Z,8.60
2018-03-22T23:44:18.243Z,7.12
2018-03-22T23:46:46.961Z,7.68
2018-03-22T23:49:15.855Z,8.18
2018-03-22T23:51:45.324Z,7.62
2018-03-22T23:54:14.212Z,6.82
2018-03-22T23:56:42.806Z,7.32
2018-03-22T23:59:11.528Z,7.10
